Estación Meteorológica Peña el Pijo (Robertgarden) [ 11/12/18 20:48:56 CET ]

Fecha Hora Presion(HPa) Temp (°C) Humedad % Rocio (°C) Viento ( m/s) Direccion Lluvia 1Hora(mm) Lluvia 24H(mm) LLuvia Total(mm)
2018-Sep-24 01:02:06 1016.800 14.9 70 9.5         354.31
2018-Sep-24 02:01:51 1016.600 14.2 72 9.2         354.31
2018-Sep-24 03:01:42 1016.200 14.2 74 9.6         354.31
2018-Sep-24 04:01:40 1015.900 13.6 74 9.0         354.31
2018-Sep-24 05:04:18 1015.500 13.6 74 9.0         354.31
2018-Sep-24 06:01:54 1015.300 12.6 77 8.6         354.31
2018-Sep-24 07:01:54 1015.300 12.3 78 8.6         354.31
2018-Sep-24 08:01:39 1015.600 12.1 80 8.8         354.31
2018-Sep-24 09:01:43 1015.800 12.9 81 9.7         354.31
2018-Sep-24 10:02:04 1016.200 21.3 71 15.8         354.31
2018-Sep-24 11:01:44 1016.600 26.9 49 15.3         354.31
2018-Sep-24 12:01:35 1016.500 31.2 36 14.3         354.31
2018-Sep-24 13:01:41 1016.100 32.1 34 14.1 0.5 S     354.31
2018-Sep-24 14:01:47 1015.700 31.6 32 12.8         354.31
2018-Sep-24 15:01:46 1015.100 31.8 31 12.6         354.31
2018-Sep-24 16:01:41 1014.500 32.9 30 13.1         354.31
2018-Sep-24 17:01:36 1014.100 32.3 29 12.0         354.31
2018-Sep-24 18:01:43 1013.700 30.4 33 12.2         354.31
2018-Sep-24 19:01:42 1013.800 25.9 42 12.0         354.31
2018-Sep-24 20:01:32 1014.200 23.7 47 11.8         354.31
2018-Sep-24 21:01:16 1014.400 20.9 54 11.2         354.31
2018-Sep-24 22:01:27 1015.100 18.5 63 11.3         354.31
2018-Sep-24 23:01:37 1015.600 17.1 67 10.9         354.31

Temperatura Máxima:32°    Temperatura Mínima:12°
Presión Máxima:1016.800 Hpa    Presión Mínima:1013.700 Hpa


Volver